Time;durP1;ratioP1;P1;durP2;ratioP2;P2;SDS_P1;SDS_P2;PMS_P1;PMS_P2;Temp;Humidity;BMP_temperature;BMP_pressure;BME280_temperature;BME280_humidity;BME280_pressure;Samples;Min_cycle;Max_cycle;Signal;HPM_P1;HPM_P2
2022/05/06 00:02:07;;;;;;;9.30;8.30;;;20.10;61.00;;;;;;5028273;28;20184;-69
2022/05/06 00:04:33;;;;;;;8.35;7.65;;;20.10;61.00;;;;;;5028129;28;20222;-69
2022/05/06 00:06:59;;;;;;;8.77;7.88;;;20.10;61.00;;;;;;5028277;28;20199;-69
2022/05/06 00:09:25;;;;;;;8.35;7.53;;;20.20;61.10;;;;;;5011525;28;20245;-69
2022/05/06 00:11:53;;;;;;;8.50;7.70;;;20.20;61.10;;;;;;5028285;28;20216;-69
2022/05/06 00:14:19;;;;;;;7.88;7.18;;;20.20;61.10;;;;;;5028138;28;20195;-69
2022/05/06 00:16:45;;;;;;;8.95;8.05;;;20.20;61.10;;;;;;5011576;28;20238;-69
2022/05/06 00:19:12;;;;;;;8.57;7.78;;;20.20;61.10;;;;;;5027882;28;20188;-69
2022/05/06 00:21:39;;;;;;;8.95;8.10;;;20.20;61.10;;;;;;5011530;28;20208;-69
2022/05/06 00:24:05;;;;;;;8.15;7.32;;;20.10;61.00;;;;;;5028120;28;20187;-69
2022/05/06 00:26:31;;;;;;;8.27;7.47;;;20.20;61.00;;;;;;5027866;28;20186;-69
2022/05/06 00:28:57;;;;;;;9.52;8.57;;;20.10;61.00;;;;;;5011238;28;20184;-69
2022/05/06 00:31:23;;;;;;;11.00;9.13;;;20.20;61.10;;;;;;5011679;28;20262;-69
2022/05/06 00:33:49;;;;;;;10.10;9.13;;;20.10;61.00;;;;;;5027893;28;20611;-69
2022/05/06 00:36:15;;;;;;;9.57;8.73;;;20.10;61.00;;;;;;4994957;28;20184;-70
2022/05/06 00:38:44;;;;;;;10.00;9.00;;;20.10;61.00;;;;;;5011579;28;20246;-70
2022/05/06 00:41:10;;;;;;;9.50;8.52;;;20.10;61.00;;;;;;5011510;28;20223;-69
2022/05/06 00:43:40;;;;;;;10.02;9.13;;;20.10;61.00;;;;;;5027792;28;20184;-69
2022/05/06 00:46:14;;;;;;;10.88;9.82;;;20.10;61.00;;;;;;5012549;28;20184;-69
2022/05/06 00:48:46;;;;;;;9.20;8.30;;;20.10;61.00;;;;;;5012319;28;20176;-69
2022/05/06 00:51:14;;;;;;;8.23;7.43;;;20.10;61.00;;;;;;5011225;28;20208;-69
2022/05/06 00:53:43;;;;;;;8.40;7.53;;;20.10;61.00;;;;;;4994836;28;20203;-69
2022/05/06 00:56:16;;;;;;;8.68;7.88;;;20.10;61.00;;;;;;4994797;28;20215;-69
2022/05/06 00:58:44;;;;;;;8.75;7.95;;;20.10;60.90;;;;;;5027466;28;20287;-69
2022/05/06 01:01:11;;;;;;;8.45;7.70;;;20.10;61.00;;;;;;5027991;28;20200;-69
2022/05/06 01:03:37;;;;;;;7.60;6.90;;;20.10;61.00;;;;;;5011220;28;20180;-70
2022/05/06 01:06:15;;;;;;;8.27;7.47;;;20.10;61.00;;;;;;5011216;28;20188;-69
2022/05/06 01:08:46;;;;;;;9.25;8.45;;;20.10;61.00;;;;;;5010920;28;20250;-69
2022/05/06 01:11:13;;;;;;;9.75;8.93;;;20.10;61.00;;;;;;5010954;28;20763;-69
2022/05/06 01:13:46;;;;;;;9.35;8.45;;;20.10;61.00;;;;;;5011317;28;20298;-69
2022/05/06 01:16:17;;;;;;;10.40;9.40;;;20.10;60.90;;;;;;4996766;28;20187;-69
2022/05/06 01:18:48;;;;;;;10.80;9.70;;;20.10;61.00;;;;;;5014678;28;20226;-69
2022/05/06 01:21:24;;;;;;;9.38;8.35;;;20.10;61.00;;;;;;4998919;28;20744;-69
2022/05/06 01:23:50;;;;;;;7.97;7.28;;;20.10;61.00;;;;;;5014983;28;20179;-69
2022/05/06 01:26:16;;;;;;;7.43;6.82;;;20.10;61.00;;;;;;5014674;28;20274;-69
2022/05/06 01:28:44;;;;;;;8.25;7.45;;;20.10;61.00;;;;;;5014745;28;20334;-69
2022/05/06 01:31:20;;;;;;;7.63;6.93;;;20.10;61.00;;;;;;5014524;28;20208;-69
2022/05/06 01:33:54;;;;;;;8.68;7.88;;;20.10;61.00;;;;;;5014466;28;20302;-70
2022/05/06 01:36:24;;;;;;;8.38;7.35;;;20.10;60.90;;;;;;5014803;28;20184;-69
2022/05/06 01:38:57;;;;;;;7.95;7.15;;;20.10;61.00;;;;;;5014554;28;20180;-69
2022/05/06 01:41:31;;;;;;;8.35;7.50;;;20.10;61.00;;;;;;5014172;28;20265;-69
2022/05/06 01:44:14;;;;;;;8.55;7.85;;;20.10;61.00;;;;;;5014624;28;20176;-69
2022/05/06 01:46:41;;;;;;;9.15;8.35;;;20.10;61.00;;;;;;5014672;28;20176;-69
2022/05/06 01:49:16;;;;;;;8.82;8.00;;;20.10;61.00;;;;;;5030544;28;20215;-70
2022/05/06 01:51:43;;;;;;;8.80;8.00;;;20.10;61.00;;;;;;5014068;28;20215;-69
2022/05/06 01:54:13;;;;;;;7.78;7.15;;;20.10;61.00;;;;;;5014307;28;20175;-69
2022/05/06 01:56:41;;;;;;;7.13;6.53;;;20.10;61.00;;;;;;5014409;28;20279;-70
2022/05/06 01:59:07;;;;;;;7.97;7.28;;;20.10;60.90;;;;;;4997583;28;20275;-69
2022/05/06 02:01:34;;;;;;;7.45;6.85;;;20.10;61.00;;;;;;5014230;28;20299;-69
2022/05/06 02:06:45;;;;;;;7.82;7.03;;;20.10;60.90;;;;;;5013911;28;20183;-69
2022/05/06 02:09:16;;;;;;;8.00;7.20;;;20.10;61.00;;;;;;5013752;28;20176;-69
2022/05/06 02:11:58;;;;;;;8.43;7.63;;;20.10;61.00;;;;;;5013821;28;20735;-69
2022/05/06 02:14:44;;;;;;;9.85;7.97;;;20.10;61.00;;;;;;5013812;28;20218;-69
2022/05/06 02:17:39;;;;;;;6.78;6.13;;;20.10;61.00;;;;;;4980551;28;20214;-69
2022/05/06 02:20:23;;;;;;;7.43;6.72;;;20.10;61.00;;;;;;5027371;28;20578;-69
2022/05/06 02:23:17;;;;;;;7.57;6.88;;;20.00;60.90;;;;;;4978289;28;20739;-69
2022/05/06 02:26:05;;;;;;;8.55;7.68;;;20.10;61.00;;;;;;5000104;28;20241;-69
2022/05/06 02:28:45;;;;;;;9.52;8.55;;;20.10;61.00;;;;;;5029567;28;20184;-69
2022/05/06 02:33:56;;;;;;;7.13;6.53;;;20.10;61.00;;;;;;5008549;28;20192;-69
2022/05/06 02:36:24;;;;;;;7.35;6.75;;;20.00;60.90;;;;;;5029716;28;20195;-69
2022/05/06 02:38:50;;;;;;;7.40;6.70;;;20.10;61.00;;;;;;5029687;28;20180;-69
2022/05/06 02:41:16;;;;;;;6.72;6.22;;;20.00;60.90;;;;;;4997036;28;20646;-69
2022/05/06 02:43:56;;;;;;;6.70;6.10;;;20.10;61.00;;;;;;5028168;28;20211;-69
2022/05/06 02:46:25;;;;;;;7.15;6.53;;;20.10;61.00;;;;;;5013421;28;20211;-69
2022/05/06 02:48:52;;;;;;;7.50;6.60;;;20.00;60.90;;;;;;5013368;28;20263;-69
2022/05/06 02:51:20;;;;;;;7.22;6.53;;;20.00;60.90;;;;;;5029197;28;20235;-69
2022/05/06 02:53:46;;;;;;;7.97;7.28;;;20.00;60.90;;;;;;5029637;28;20207;-69
2022/05/06 02:56:15;;;;;;;8.27;7.57;;;20.10;61.00;;;;;;5013002;28;20196;-69
2022/05/06 02:58:51;;;;;;;8.93;8.13;;;20.00;60.90;;;;;;4998194;28;20203;-69
2022/05/06 03:01:19;;;;;;;10.38;8.27;;;20.10;61.00;;;;;;5029325;28;20661;-69
2022/05/06 03:03:48;;;;;;;10.80;9.80;;;20.10;61.00;;;;;;5029242;28;20234;-69
2022/05/06 03:06:18;;;;;;;9.95;9.05;;;20.00;60.80;;;;;;5028644;28;20226;-69
2022/05/06 03:08:45;;;;;;;8.05;7.30;;;20.10;61.00;;;;;;5029469;28;20203;-69
2022/05/06 03:11:14;;;;;;;7.18;6.50;;;20.00;60.90;;;;;;5028988;28;20208;-69
2022/05/06 03:13:46;;;;;;;7.32;6.68;;;20.10;61.00;;;;;;5028339;28;20687;-69
2022/05/06 03:16:16;;;;;;;6.95;6.35;;;20.10;61.00;;;;;;5000236;28;20250;-69
2022/05/06 03:18:42;;;;;;;7.40;6.70;;;20.00;60.90;;;;;;4994191;28;20185;-69
2022/05/06 03:21:07;;;;;;;6.38;5.75;;;20.00;60.90;;;;;;4992920;28;20271;-70
2022/05/06 03:23:33;;;;;;;7.35;6.65;;;20.00;60.90;;;;;;4992956;28;20208;-70
2022/05/06 03:26:02;;;;;;;7.28;6.57;;;20.00;60.90;;;;;;4992845;28;20188;-69
2022/05/06 03:28:27;;;;;;;7.60;6.90;;;20.00;60.90;;;;;;4992707;28;20327;-68
2022/05/06 03:30:53;;;;;;;7.55;6.85;;;20.00;60.90;;;;;;4992988;28;20209;-69
2022/05/06 03:33:31;;;;;;;8.02;7.32;;;20.00;60.90;;;;;;4992985;28;20235;-69
2022/05/06 03:36:02;;;;;;;9.18;8.27;;;20.10;61.00;;;;;;4992978;28;20748;-69
2022/05/06 03:38:32;;;;;;;9.55;8.55;;;20.00;61.60;;;;;;5008120;28;20180;-69
2022/05/06 03:40:58;;;;;;;10.05;8.98;;;20.00;60.80;;;;;;4992250;28;20236;-69
2022/05/06 03:43:27;;;;;;;9.38;8.48;;;20.00;60.90;;;;;;4993024;28;20192;-69
2022/05/06 03:45:54;;;;;;;10.30;9.30;;;20.00;60.80;;;;;;4991921;28;20690;-69
2022/05/06 03:48:24;;;;;;;10.27;9.27;;;20.00;60.90;;;;;;4992336;28;20184;-69
2022/05/06 03:53:40;;;;;;;7.90;7.10;;;20.00;61.30;;;;;;4992639;28;20205;-69
2022/05/06 03:56:06;;;;;;;7.18;6.55;;;20.00;60.90;;;;;;4992354;28;20180;-69
2022/05/06 03:58:39;;;;;;;7.43;6.72;;;20.00;60.90;;;;;;4992439;28;20261;-69
2022/05/06 04:01:07;;;;;;;7.68;6.97;;;20.00;60.90;;;;;;4992169;28;20196;-69
2022/05/06 04:03:34;;;;;;;6.57;5.97;;;20.00;60.90;;;;;;4976111;28;20189;-69
2022/05/06 04:06:00;;;;;;;7.10;6.40;;;20.00;60.80;;;;;;4992193;28;20184;-70
2022/05/06 04:08:27;;;;;;;7.25;6.55;;;20.00;60.80;;;;;;4992211;28;20255;-69
2022/05/06 04:10:54;;;;;;;7.65;6.85;;;20.00;60.90;;;;;;4992186;28;20204;-69
2022/05/06 04:13:20;;;;;;;8.02;7.30;;;20.00;60.80;;;;;;4991959;28;20223;-69
2022/05/06 04:15:48;;;;;;;8.73;7.93;;;20.00;60.90;;;;;;4992013;28;20727;-69
2022/05/06 04:18:14;;;;;;;8.70;7.90;;;20.00;60.90;;;;;;4992266;28;20185;-69
2022/05/06 04:23:30;;;;;;;8.50;7.70;;;20.00;60.90;;;;;;5008360;28;20177;-69
2022/05/06 04:26:13;;;;;;;7.80;7.10;;;20.00;60.90;;;;;;4992188;28;20184;-69
2022/05/06 04:28:46;;;;;;;7.28;6.57;;;20.00;60.80;;;;;;4992041;28;20192;-69
2022/05/06 04:31:12;;;;;;;7.30;6.65;;;20.00;60.90;;;;;;4991905;28;20215;-68
2022/05/06 04:33:41;;;;;;;7.15;6.50;;;20.00;60.90;;;;;;4992086;28;20239;-69
2022/05/06 04:36:15;;;;;;;6.63;6.03;;;20.00;60.90;;;;;;4977080;28;20199;-69
2022/05/06 04:38:45;;;;;;;7.47;6.88;;;20.00;60.80;;;;;;4976465;28;20165;-69
2022/05/06 04:41:12;;;;;;;8.18;7.47;;;20.00;60.90;;;;;;5034705;22;20309;-68
2022/05/06 04:43:38;;;;;;;8.13;7.32;;;20.00;60.90;;;;;;5008224;28;20227;-68
2022/05/06 04:46:04;;;;;;;8.57;7.80;;;20.00;60.80;;;;;;4991744;28;20177;-68
2022/05/06 04:48:32;;;;;;;8.57;7.38;;;20.00;60.80;;;;;;4991695;28;20184;-69
2022/05/06 04:51:00;;;;;;;9.25;8.43;;;20.00;60.80;;;;;;4994227;28;20239;-69
2022/05/06 04:53:26;;;;;;;9.27;8.38;;;20.00;60.90;;;;;;5012068;28;20247;-69
2022/05/06 04:55:55;;;;;;;9.52;8.70;;;20.00;60.80;;;;;;4995921;28;20680;-69
2022/05/06 04:58:31;;;;;;;9.45;8.65;;;20.00;60.90;;;;;;4995256;28;20192;-69
2022/05/06 05:01:00;;;;;;;8.43;7.70;;;20.00;60.80;;;;;;5004606;28;20216;-69
2022/05/06 05:03:26;;;;;;;6.88;6.25;;;20.00;60.80;;;;;;4995549;28;20223;-68
2022/05/06 05:05:55;;;;;;;6.88;6.28;;;20.00;60.80;;;;;;4995496;28;20212;-68
2022/05/06 05:08:21;;;;;;;6.72;6.13;;;20.00;60.80;;;;;;4995811;28;20177;-69
2022/05/06 05:10:49;;;;;;;6.80;6.10;;;20.00;60.80;;;;;;4981853;28;20280;-69
2022/05/06 05:13:16;;;;;;;6.93;6.35;;;20.00;60.80;;;;;;4986703;28;20575;-69
2022/05/06 05:15:43;;;;;;;7.32;6.63;;;20.00;60.90;;;;;;4985271;28;20181;-69
2022/05/06 05:18:09;;;;;;;6.65;6.05;;;20.00;60.80;;;;;;4981761;28;20186;-69
2022/05/06 05:20:37;;;;;;;6.88;6.28;;;20.00;60.80;;;;;;4992834;28;20268;-69
2022/05/06 05:23:02;;;;;;;6.60;6.00;;;20.00;60.90;;;;;;4994606;28;20279;-69
2022/05/06 05:25:30;;;;;;;6.53;5.93;;;20.00;60.80;;;;;;4991386;28;20190;-69
2022/05/06 05:27:59;;;;;;;8.25;7.50;;;20.00;60.80;;;;;;4994489;28;20197;-69
2022/05/06 05:30:34;;;;;;;8.25;7.55;;;20.00;60.80;;;;;;4994174;28;20192;-69
2022/05/06 05:33:02;;;;;;;7.68;6.97;;;20.00;60.80;;;;;;4994328;28;20299;-69
2022/05/06 05:35:29;;;;;;;8.25;7.45;;;20.00;60.80;;;;;;4994329;28;20188;-69
2022/05/06 05:38:00;;;;;;;9.02;8.23;;;20.00;60.80;;;;;;4994605;28;20181;-69
2022/05/06 05:40:26;;;;;;;8.40;7.53;;;20.00;60.80;;;;;;4994145;28;20185;-69
2022/05/06 05:42:51;;;;;;;7.13;6.53;;;20.00;60.80;;;;;;4994318;28;20196;-69
2022/05/06 05:48:25;;;;;;;6.45;5.95;;;20.00;60.80;;;;;;4953583;29;20197;-70
2022/05/06 05:50:56;;;;;;;6.35;5.85;;;20.00;60.70;;;;;;4952778;29;20206;-69
2022/05/06 05:53:29;;;;;;;6.90;6.22;;;20.00;60.70;;;;;;4952099;28;20293;-68
2022/05/06 05:55:57;;;;;;;7.13;6.43;;;20.00;60.70;;;;;;4974584;28;20186;-69
2022/05/06 05:58:24;;;;;;;8.02;7.32;;;20.00;60.70;;;;;;4974477;28;20595;-69
2022/05/06 06:00:54;;;;;;;7.25;6.65;;;20.00;60.70;;;;;;4974571;28;20211;-69
2022/05/06 06:03:24;;;;;;;7.80;7.10;;;20.00;60.70;;;;;;4994351;28;20276;-69
2022/05/06 06:05:50;;;;;;;8.07;7.38;;;20.00;60.60;;;;;;4975686;28;20243;-69
2022/05/06 06:08:15;;;;;;;8.65;7.85;;;20.00;60.60;;;;;;4984039;28;20177;-69
2022/05/06 06:10:42;;;;;;;8.52;7.72;;;20.00;60.60;;;;;;4976624;28;20269;-69
2022/05/06 06:13:10;;;;;;;6.75;6.15;;;20.00;60.70;;;;;;4974532;28;20213;-68
2022/05/06 06:15:41;;;;;;;6.32;5.82;;;20.00;60.60;;;;;;4991262;28;20272;-69
2022/05/06 06:18:07;;;;;;;6.68;5.93;;;20.00;60.60;;;;;;4984646;28;20193;-69
2022/05/06 06:20:33;;;;;;;6.20;5.70;;;20.00;60.60;;;;;;4990701;28;20204;-69
2022/05/06 06:22:59;;;;;;;5.93;5.38;;;20.00;60.60;;;;;;4993524;28;20189;-69
2022/05/06 06:25:26;;;;;;;6.50;5.90;;;20.00;60.60;;;;;;4991602;28;20191;-68
2022/05/06 06:27:55;;;;;;;5.75;5.07;;;20.00;60.60;;;;;;5013175;28;20184;-69
2022/05/06 06:30:21;;;;;;;5.90;5.40;;;20.00;60.50;;;;;;5012991;28;20184;-69
2022/05/06 06:32:47;;;;;;;6.20;5.70;;;20.10;61.40;;;;;;5012745;28;20223;-69
2022/05/06 06:35:14;;;;;;;5.68;5.18;;;20.10;60.60;;;;;;4989147;28;20188;-69
2022/05/06 06:37:46;;;;;;;5.90;5.40;;;20.00;60.50;;;;;;4993227;28;20184;-69
2022/05/06 06:40:12;;;;;;;6.63;6.05;;;20.00;60.50;;;;;;4975926;28;20275;-69
2022/05/06 06:42:42;;;;;;;6.93;6.35;;;20.10;60.50;;;;;;4982626;28;20228;-69
2022/05/06 06:45:17;;;;;;;6.80;6.20;;;20.10;60.50;;;;;;5003256;28;20187;-69
2022/05/06 06:47:58;;;;;;;6.93;6.32;;;20.00;60.50;;;;;;5009451;28;20223;-69
2022/05/06 06:50:39;;;;;;;6.55;5.00;;;20.00;60.40;;;;;;5009259;28;20193;-69
2022/05/06 06:53:20;;;;;;;5.70;5.20;;;20.10;60.50;;;;;;5009241;28;20253;-69
2022/05/06 06:55:46;;;;;;;5.95;5.45;;;20.10;60.40;;;;;;5008749;28;20185;-69
2022/05/06 06:58:12;;;;;;;5.70;5.20;;;20.10;60.40;;;;;;4993254;28;20263;-69
2022/05/06 07:00:38;;;;;;;5.65;5.15;;;20.10;60.40;;;;;;4992347;28;20192;-69
2022/05/06 07:03:04;;;;;;;5.38;4.88;;;20.10;60.40;;;;;;4992839;28;20227;-69
2022/05/06 07:05:30;;;;;;;5.45;4.97;;;20.10;60.40;;;;;;5008215;28;20212;-70
2022/05/06 07:13:25;;;;;;;5.88;5.38;;;20.10;60.40;;;;;;5011964;28;20220;-70
2022/05/06 07:15:51;;;;;;;7.07;6.50;;;20.10;60.40;;;;;;5011552;28;20192;-69
2022/05/06 07:18:17;;;;;;;6.07;5.57;;;20.10;60.40;;;;;;4995927;28;20180;-69
2022/05/06 07:20:43;;;;;;;5.18;4.78;;;20.10;60.50;;;;;;5011702;28;20243;-69
2022/05/06 07:23:10;;;;;;;6.32;5.40;;;20.10;60.40;;;;;;5012997;28;20187;-69
2022/05/06 07:25:37;;;;;;;6.03;5.43;;;20.10;60.40;;;;;;5008212;28;20292;-69
2022/05/06 07:28:04;;;;;;;5.78;5.28;;;20.10;60.40;;;;;;4973017;28;20200;-69
2022/05/06 07:30:30;;;;;;;5.75;5.25;;;20.10;60.30;;;;;;4972517;28;20189;-70
2022/05/06 07:32:56;;;;;;;5.57;5.07;;;20.10;60.40;;;;;;4995109;28;20591;-70
2022/05/06 07:35:21;;;;;;;5.28;4.80;;;20.10;60.40;;;;;;4996434;28;20218;-70
2022/05/06 07:37:47;;;;;;;5.20;4.80;;;20.10;60.40;;;;;;5003641;28;20184;-70
2022/05/06 07:40:14;;;;;;;6.03;5.45;;;20.10;60.30;;;;;;5027770;28;20195;-70
2022/05/06 07:42:42;;;;;;;5.00;4.60;;;20.10;60.30;;;;;;5027907;28;20274;-70
2022/05/06 07:45:11;;;;;;;5.32;4.78;;;20.10;60.40;;;;;;5011145;28;20196;-69
2022/05/06 07:47:38;;;;;;;4.82;4.43;;;20.10;60.20;;;;;;5012788;28;20191;-68
2022/05/06 07:50:05;;;;;;;5.15;4.75;;;20.10;60.30;;;;;;5011168;28;20195;-69
2022/05/06 07:52:31;;;;;;;5.00;4.60;;;20.20;60.20;;;;;;5011554;28;20219;-69
2022/05/06 07:54:57;;;;;;;4.97;4.60;;;20.20;60.40;;;;;;5010974;28;20188;-70
2022/05/06 07:57:23;;;;;;;4.80;4.40;;;20.20;60.20;;;;;;5012493;28;20184;-70
2022/05/06 07:59:48;;;;;;;5.45;4.97;;;20.20;60.10;;;;;;5013785;28;20195;-69
2022/05/06 08:04:59;;;;;;;5.80;5.30;;;20.10;60.10;;;;;;5010130;28;20202;-70
2022/05/06 08:07:25;;;;;;;5.30;4.90;;;20.20;60.10;;;;;;5010858;28;20199;-69
2022/05/06 08:09:50;;;;;;;5.13;4.72;;;20.20;60.10;;;;;;5010378;28;20238;-69
2022/05/06 08:12:16;;;;;;;4.68;4.38;;;20.10;60.00;;;;;;4994986;28;20226;-70
2022/05/06 08:14:43;;;;;;;5.30;4.80;;;20.20;60.20;;;;;;5001435;28;20192;-70
2022/05/06 08:17:09;;;;;;;5.60;5.10;;;20.20;60.30;;;;;;4991496;28;20191;-70
2022/05/06 08:19:35;;;;;;;6.93;4.57;;;20.20;60.20;;;;;;4991184;28;20192;-70
2022/05/06 08:22:00;;;;;;;5.20;4.80;;;20.20;60.20;;;;;;4991321;28;20205;-69
2022/05/06 08:24:27;;;;;;;5.03;4.63;;;20.10;60.10;;;;;;4997661;28;20219;-69
2022/05/06 08:26:53;;;;;;;4.93;4.53;;;20.20;60.20;;;;;;5010685;28;20222;-69
2022/05/06 08:29:19;;;;;;;5.13;4.43;;;20.10;60.10;;;;;;4975438;28;20195;-70
2022/05/06 08:31:45;;;;;;;4.60;4.28;;;20.20;60.30;;;;;;4974995;28;20201;-70
2022/05/06 08:34:13;;;;;;;4.70;4.30;;;20.20;60.20;;;;;;4974552;28;20196;-69
2022/05/06 08:36:43;;;;;;;4.70;4.30;;;20.20;60.20;;;;;;4991457;28;20207;-70
2022/05/06 08:39:11;;;;;;;4.43;4.03;;;20.20;60.10;;;;;;4990997;28;20657;-70
2022/05/06 08:41:38;;;;;;;4.82;4.43;;;20.20;60.10;;;;;;5007109;28;20307;-69
2022/05/06 08:52:40;;;;;;;4.70;4.40;;;20.20;60.00;;;;;;4990954;28;20602;-70
2022/05/06 08:55:06;;;;;;;5.18;4.68;;;20.20;60.00;;;;;;4990543;28;20188;-70
2022/05/06 08:57:33;;;;;;;5.22;4.82;;;20.20;60.20;;;;;;4991299;28;20181;-70
2022/05/06 08:59:59;;;;;;;4.55;4.13;;;20.20;60.00;;;;;;4974367;28;20561;-70
2022/05/06 09:02:24;;;;;;;4.65;4.35;;;20.20;60.20;;;;;;4989194;28;20204;-70
2022/05/06 09:04:51;;;;;;;4.93;4.53;;;20.20;60.10;;;;;;4990729;28;20193;-70
2022/05/06 09:07:23;;;;;;;4.80;4.43;;;20.20;59.90;;;;;;4974895;28;20219;-70
2022/05/06 09:10:14;;;;;;;5.10;4.70;;;20.20;60.00;;;;;;4990525;28;20575;-70
2022/05/06 09:12:42;;;;;;;4.50;4.18;;;20.20;60.20;;;;;;4990643;28;20224;-70
2022/05/06 09:18:02;;;;;;;5.20;4.80;;;20.30;59.90;;;;;;4990762;28;20196;-71
2022/05/06 09:20:29;;;;;;;5.43;4.90;;;20.30;59.90;;;;;;4990705;28;20208;-70
2022/05/06 09:22:56;;;;;;;5.20;4.80;;;20.20;59.90;;;;;;4990927;28;20196;-70
2022/05/06 09:25:42;;;;;;;4.90;4.50;;;20.30;60.00;;;;;;4990314;28;20263;-70
2022/05/06 09:28:27;;;;;;;4.55;4.22;;;20.20;59.90;;;;;;4974664;28;20199;-70
2022/05/06 09:31:08;;;;;;;4.90;4.50;;;20.30;60.30;;;;;;4974191;28;20217;-69
2022/05/06 09:33:37;;;;;;;4.60;4.30;;;20.30;60.30;;;;;;4974370;28;20243;-69
2022/05/06 09:36:31;;;;;;;5.03;4.63;;;20.20;60.20;;;;;;4990187;28;20224;-70
2022/05/06 09:39:08;;;;;;;5.15;4.75;;;20.30;59.90;;;;;;4977561;28;20194;-70
2022/05/06 09:41:38;;;;;;;4.90;4.55;;;20.30;59.90;;;;;;4993876;28;20220;-70
2022/05/06 09:44:10;;;;;;;5.25;4.85;;;20.30;60.00;;;;;;4994149;28;20177;-70
2022/05/06 09:46:36;;;;;;;4.97;4.57;;;20.30;59.90;;;;;;4994193;28;20217;-70
2022/05/06 09:49:04;;;;;;;5.28;4.78;;;20.30;60.00;;;;;;4993898;28;20634;-67
2022/05/06 09:51:33;;;;;;;5.18;4.78;;;20.30;59.90;;;;;;4994410;28;20211;-69
2022/05/06 09:54:02;;;;;;;4.47;4.18;;;20.30;59.80;;;;;;4997179;28;20606;-69
2022/05/06 09:56:28;;;;;;;4.90;4.50;;;20.30;59.80;;;;;;5015377;28;20254;-69
2022/05/06 09:58:58;;;;;;;5.20;4.70;;;20.30;59.80;;;;;;5013986;28;20180;-68
2022/05/06 10:01:25;;;;;;;5.35;4.57;;;20.30;59.70;;;;;;4997510;28;20243;-66
2022/05/06 10:03:54;;;;;;;4.50;4.07;;;20.30;59.80;;;;;;4995396;28;20188;-70
2022/05/06 10:06:27;;;;;;;4.40;4.00;;;20.30;59.80;;;;;;5029722;28;20246;-70
2022/05/06 10:09:00;;;;;;;4.72;4.32;;;20.30;60.00;;;;;;5013365;28;20238;-69
2022/05/06 10:11:28;;;;;;;4.45;4.15;;;20.30;59.90;;;;;;5013461;28;20204;-69
2022/05/06 10:13:58;;;;;;;4.68;4.35;;;20.30;60.00;;;;;;5011297;28;20212;-69
2022/05/06 10:16:42;;;;;;;5.20;4.70;;;20.30;60.00;;;;;;4978085;28;20188;-69
2022/05/06 10:19:46;;;;;;;5.47;4.45;;;20.30;60.00;;;;;;4996042;28;20196;-67
2022/05/06 10:22:12;;;;;;;4.78;4.38;;;20.30;60.00;;;;;;4938297;29;20214;-69
2022/05/06 10:24:53;;;;;;;4.80;4.40;;;20.30;60.00;;;;;;4945955;28;20273;-69
2022/05/06 10:33:14;;;;;;;4.93;4.53;;;20.30;60.10;;;;;;4995174;28;20223;-70
2022/05/06 10:35:46;;;;;;;4.93;4.53;;;20.30;60.10;;;;;;5010427;28;20214;-69
2022/05/06 10:38:25;;;;;;;4.80;4.40;;;20.40;60.10;;;;;;5013579;28;20195;-69
2022/05/06 10:45:54;;;;;;;5.60;5.10;;;20.40;60.20;;;;;;5032502;28;20238;-72
2022/05/06 10:48:22;;;;;;;5.18;4.78;;;20.30;60.30;;;;;;5032928;28;20199;-72
2022/05/06 10:50:48;;;;;;;7.72;4.82;;;20.30;60.30;;;;;;5032918;28;20179;-72
2022/05/06 10:53:33;;;;;;;9.13;5.13;;;20.30;60.40;;;;;;5013725;28;20226;-73
2022/05/06 10:55:59;;;;;;;15.57;5.07;;;20.40;61.30;;;;;;5015373;28;20206;-72
2022/05/06 10:58:24;;;;;;;12.65;5.70;;;20.40;62.20;;;;;;5033283;28;20281;-72
2022/05/06 11:01:00;;;;;;;13.00;5.10;;;20.50;63.00;;;;;;5032947;28;20179;-72
2022/05/06 11:03:26;;;;;;;9.77;4.53;;;20.50;63.20;;;;;;5049403;28;20181;-73
2022/05/06 11:05:52;;;;;;;10.85;5.32;;;20.50;63.40;;;;;;5049101;28;20663;-72
2022/05/06 11:08:21;;;;;;;7.50;4.65;;;20.50;63.70;;;;;;5032680;28;20202;-72
2022/05/06 11:10:49;;;;;;;9.93;5.13;;;20.50;63.80;;;;;;5032395;28;20187;-72
2022/05/06 11:13:17;;;;;;;8.68;4.55;;;20.50;63.80;;;;;;5025036;28;20247;-72
2022/05/06 11:15:44;;;;;;;10.50;4.70;;;20.50;63.80;;;;;;4993179;28;20189;-72
2022/05/06 11:18:10;;;;;;;10.45;4.70;;;20.50;63.90;;;;;;5009770;28;20184;-72
2022/05/06 11:20:39;;;;;;;6.97;4.80;;;20.50;63.80;;;;;;4992797;28;20280;-72
2022/05/06 11:23:08;;;;;;;7.50;4.47;;;20.50;64.10;;;;;;5009392;28;20205;-72
2022/05/06 11:25:42;;;;;;;6.90;4.20;;;20.50;64.00;;;;;;4992884;28;20195;-72
2022/05/06 11:28:32;;;;;;;9.75;4.18;;;20.50;64.00;;;;;;4993006;28;20227;-72
2022/05/06 11:30:57;;;;;;;6.25;4.68;;;20.50;63.90;;;;;;4992694;28;20185;-72
2022/05/06 11:33:28;;;;;;;8.32;4.90;;;20.50;64.10;;;;;;4992684;28;20247;-73
2022/05/06 11:36:07;;;;;;;5.97;4.55;;;20.50;63.80;;;;;;4993051;28;20188;-73
2022/05/06 11:38:37;;;;;;;7.65;4.32;;;20.50;63.60;;;;;;4992721;28;20181;-73
2022/05/06 11:41:12;;;;;;;4.93;4.13;;;20.20;62.30;;;;;;5008965;28;20180;-72
2022/05/06 11:43:40;;;;;;;8.25;5.18;;;20.20;61.60;;;;;;4992829;28;20192;-72
2022/05/06 11:48:58;;;;;;;7.95;5.20;;;20.30;63.60;;;;;;5002591;28;20239;-72
2022/05/06 11:51:43;;;;;;;6.05;5.30;;;20.40;63.40;;;;;;5008256;28;20220;-72
2022/05/06 11:54:10;;;;;;;9.20;5.75;;;20.40;63.40;;;;;;5008680;28;20266;-72
2022/05/06 11:56:37;;;;;;;6.72;5.00;;;20.40;63.40;;;;;;5008739;28;20239;-70
2022/05/06 11:59:05;;;;;;;5.68;5.18;;;20.50;63.50;;;;;;4992061;28;20645;-72
2022/05/06 12:01:37;;;;;;;6.82;4.93;;;20.50;63.40;;;;;;4991851;28;20224;-72
2022/05/06 12:04:06;;;;;;;5.97;5.15;;;20.50;63.30;;;;;;4976372;28;20243;-72
2022/05/06 12:06:32;;;;;;;7.03;5.40;;;20.50;63.30;;;;;;4992143;28;20279;-71
2022/05/06 12:09:16;;;;;;;6.47;5.15;;;20.50;63.30;;;;;;4992537;28;20204;-72
2022/05/06 12:11:44;;;;;;;8.20;5.13;;;20.50;63.40;;;;;;4991985;28;20262;-72
2022/05/06 12:14:19;;;;;;;9.48;4.63;;;20.50;63.30;;;;;;4992065;28;20223;-71
2022/05/06 12:17:01;;;;;;;10.80;5.32;;;20.50;63.30;;;;;;5008552;28;20201;-72
2022/05/06 12:19:45;;;;;;;7.55;5.72;;;20.50;63.30;;;;;;4975713;28;20181;-73
2022/05/06 12:22:22;;;;;;;7.53;5.03;;;20.50;63.40;;;;;;4992197;28;20219;-72
2022/05/06 12:24:55;;;;;;;7.45;5.10;;;20.50;63.50;;;;;;5008684;28;20231;-72
2022/05/06 12:27:33;;;;;;;7.68;5.07;;;20.50;63.50;;;;;;5008244;28;20200;-72
2022/05/06 12:30:01;;;;;;;5.97;4.68;;;20.50;63.50;;;;;;4992062;28;20323;-72
2022/05/06 12:32:28;;;;;;;7.30;5.05;;;20.60;63.60;;;;;;4991762;28;20307;-72
2022/05/06 12:35:09;;;;;;;9.77;4.63;;;20.50;63.40;;;;;;4991775;28;20185;-72
2022/05/06 12:37:36;;;;;;;11.27;4.55;;;20.50;63.40;;;;;;4991944;28;20198;-72
2022/05/06 12:40:04;;;;;;;5.53;4.43;;;20.60;63.60;;;;;;4991233;28;20267;-72
2022/05/06 12:42:30;;;;;;;5.93;4.57;;;20.60;63.60;;;;;;5008151;28;20213;-73
2022/05/06 12:45:03;;;;;;;4.97;4.40;;;20.50;63.30;;;;;;4991683;28;20195;-72
2022/05/06 12:50:15;;;;;;;5.57;4.95;;;20.50;63.40;;;;;;5010853;28;20230;-72
2022/05/06 12:52:42;;;;;;;7.72;4.60;;;20.50;63.30;;;;;;5006739;28;20223;-73
2022/05/06 12:55:08;;;;;;;7.55;5.13;;;20.50;63.30;;;;;;5012540;28;20176;-73
2022/05/06 12:57:33;;;;;;;5.30;4.18;;;20.50;63.30;;;;;;5011226;28;20180;-73
2022/05/06 12:59:59;;;;;;;8.57;4.30;;;20.50;63.40;;;;;;5009589;28;20188;-73
2022/05/06 13:02:25;;;;;;;6.53;4.32;;;20.60;63.50;;;;;;5008129;28;20208;-73
2022/05/06 13:04:51;;;;;;;5.82;3.90;;;20.50;63.40;;;;;;5008057;28;20185;-73
2022/05/06 13:07:16;;;;;;;7.43;4.25;;;20.60;63.40;;;;;;5003782;28;20187;-73
2022/05/06 13:09:42;;;;;;;8.95;4.20;;;20.60;63.40;;;;;;5010994;28;20250;-71
2022/05/06 13:12:12;;;;;;;7.25;4.68;;;20.60;63.20;;;;;;5013391;28;20290;-73
2022/05/06 13:14:38;;;;;;;6.22;3.97;;;20.60;63.30;;;;;;5015053;28;20192;-73
2022/05/06 13:17:04;;;;;;;7.15;4.10;;;20.60;63.50;;;;;;5014861;28;20184;-73
2022/05/06 13:19:30;;;;;;;4.30;3.90;;;20.50;64.20;;;;;;5015047;28;20601;-72
2022/05/06 13:21:57;;;;;;;9.05;4.15;;;20.60;63.50;;;;;;5027883;28;20209;-72
2022/05/06 13:24:23;;;;;;;6.22;3.90;;;20.60;63.80;;;;;;4995247;28;20181;-73
2022/05/06 13:26:50;;;;;;;5.30;4.13;;;20.60;63.80;;;;;;4995525;28;20555;-73
2022/05/06 13:29:15;;;;;;;5.30;4.15;;;20.60;63.80;;;;;;4995025;28;20267;-73
2022/05/06 13:31:41;;;;;;;7.00;3.90;;;20.60;63.70;;;;;;4995182;28;20208;-73
2022/05/06 13:34:07;;;;;;;5.80;4.30;;;20.60;63.70;;;;;;4995081;28;20208;-73
2022/05/06 13:36:34;;;;;;;6.10;4.10;;;20.60;63.60;;;;;;5011375;28;20189;-72
2022/05/06 13:39:00;;;;;;;5.20;4.05;;;20.60;63.80;;;;;;4979150;28;20181;-72
2022/05/06 13:41:27;;;;;;;7.00;3.88;;;20.60;63.90;;;;;;4995110;28;20217;-73
2022/05/06 13:43:54;;;;;;;6.18;4.05;;;20.60;63.90;;;;;;5011320;28;20204;-73
2022/05/06 13:46:20;;;;;;;8.32;4.10;;;20.60;63.90;;;;;;4996405;28;20164;-73
2022/05/06 13:48:46;;;;;;;5.75;4.00;;;20.60;63.80;;;;;;4994837;28;20193;-73